Denver International Airport
KDEN : now visible

Airfield :











YOU CAN JOIN US ON...

 
LOGIN :

Register | Disclaimer

   EN    FR    IT 

 









Legend :    VFR   Marginal VFR   IFR   Intensive IFR   Very Intensive IFR
Visi :
Ceiling :
>= 8 km
>= 3000ft
5 to 8 km
1000 to 3000 ft
1500m to 5 km
500 to 1000 ft
800 to 1500m
200 to 500 ft
< 800m
< 200 ft
Symbols :   Thunderstorms  Fog  Heavy snow  Heavy precipitations  Wind > 20 kt






- Airport Elevation : 5431 ft
- IATA code : DEN


KDEN - Denver International

CURRENT METAR :
  • 192253Z 13010KT 10SM FEW200 BKN250 14/M04 A2972 RMK AO2 SLP030 CCSL DSNT W-NW T01391044

EXPIRED METARs :
  • 192153Z 11007KT 10SM FEW150 BKN220 17/M05 A2973 RMK AO2 SLP026 T01671050
  • 192053Z 12006KT 10SM FEW150 BKN220 18/M07 A2974 RMK AO2 SLP026 T01781067 56026
  • 191953Z 00000KT 10SM BKN220 18/M06 A2977 RMK AO2 SLP041 T01781061 $

TAF KDEN
Valid from the 19 at 21:00 until the 21 at 00:00 UTC


192104Z 1921/2024 12008KT P6SM FEW110 BKN220
FM200000 16005KT P6SM FEW110 BKN220
FM200300 20010KT P6SM FEW110 BKN220
FM201200 25008KT P6SM SCT090 BKN180
FM201700 04017G24KT P6SM SCT050 OVC090
FM202000 04017G24KT P6SM SCT030 OVC050
FM202200 04015KT 4SM -RASN BR SCT015 OVC030



MET'MAP, your aeronautical weather chart ! - Copyright ORBIFLY December 2007 - Disclaimer

ORBIFLY MET'MAP TEAM :

Programming & Development : Alexandra Zaïnal
Concept & Development : Baudouin d'Aumeries
Co-Development & Prog : Marc-Olivier Méhu
Technical & hardware support : Manuel Goepfert

Contact : metmap@orbifly.com




SOURCES & CREDITS :

   NOAA       Earth
Advisory